Time;durP1;ratioP1;P1;durP2;ratioP2;P2;SDS_P1;SDS_P2;PMS_P1;PMS_P2;Temp;Humidity;BMP_temperature;BMP_pressure;BME280_temperature;BME280_humidity;BME280_pressure;Samples;Min_cycle;Max_cycle;Signal;HPM_P1;HPM_P2
2023/01/22 00:02:01;;;;;;;39.83;16.58;;;-2.50;99.90;;;;;;5077160;28;20027;-87
2023/01/22 00:04:27;;;;;;;41.10;16.13;;;-2.40;99.90;;;;;;5077261;28;20030;-87
2023/01/22 00:06:53;;;;;;;42.95;16.38;;;-2.40;99.90;;;;;;5077382;28;20051;-88
2023/01/22 00:09:21;;;;;;;47.65;18.38;;;-2.40;99.90;;;;;;5077199;28;20027;-87
2023/01/22 00:11:48;;;;;;;37.42;15.50;;;-2.40;99.90;;;;;;5077118;28;20472;-87
2023/01/22 00:14:14;;;;;;;40.13;15.68;;;-2.40;99.90;;;;;;5077341;28;20032;-87
2023/01/22 00:16:40;;;;;;;48.35;18.25;;;-2.40;99.90;;;;;;5076357;28;20032;-88
2023/01/22 00:19:06;;;;;;;40.00;15.65;;;-2.40;99.90;;;;;;5076416;28;20031;-87
2023/01/22 00:21:33;;;;;;;38.05;16.13;;;-2.40;99.90;;;;;;5076681;28;20122;-87
2023/01/22 00:23:59;;;;;;;36.03;15.85;;;-2.40;99.90;;;;;;5093291;28;20028;-87
2023/01/22 00:26:25;;;;;;;37.08;16.17;;;-2.40;99.90;;;;;;5093480;28;20020;-87
2023/01/22 00:28:51;;;;;;;42.47;16.35;;;-2.30;99.90;;;;;;5076602;28;20433;-87
2023/01/22 00:31:17;;;;;;;43.90;17.20;;;-2.30;99.90;;;;;;5076412;28;20360;-87
2023/01/22 00:33:44;;;;;;;40.85;17.10;;;-2.30;99.90;;;;;;5076499;28;20056;-88
2023/01/22 00:36:14;;;;;;;43.50;18.08;;;-2.30;99.90;;;;;;5093342;28;20025;-87
2023/01/22 00:38:39;;;;;;;39.28;17.58;;;-2.30;99.90;;;;;;5076316;28;20400;-88
2023/01/22 00:41:07;;;;;;;42.67;18.25;;;-2.30;99.90;;;;;;5076218;28;20344;-87
2023/01/22 00:43:34;;;;;;;44.00;17.67;;;-2.30;99.90;;;;;;5076485;28;20490;-87
2023/01/22 00:46:00;;;;;;;46.10;18.10;;;-2.20;99.90;;;;;;5076045;28;20801;-88
2023/01/22 00:48:27;;;;;;;43.42;17.70;;;-2.20;99.90;;;;;;5076159;28;20020;-88
2023/01/22 00:50:52;;;;;;;46.17;17.65;;;-2.20;99.90;;;;;;5076646;28;20046;-87
2023/01/22 00:53:18;;;;;;;42.90;18.50;;;-2.20;99.90;;;;;;5071781;28;20159;-87
2023/01/22 00:55:55;;;;;;;38.95;17.40;;;-2.20;99.90;;;;;;5071889;28;20028;-88
2023/01/22 00:58:21;;;;;;;44.28;18.23;;;-2.20;99.90;;;;;;5077891;28;20107;-88
2023/01/22 01:00:48;;;;;;;45.05;19.58;;;-2.20;99.90;;;;;;5097072;28;20032;-87
2023/01/22 01:03:26;;;;;;;52.08;19.83;;;-2.20;99.90;;;;;;5095318;28;20028;-88
2023/01/22 01:06:07;;;;;;;53.03;20.65;;;-2.10;99.90;;;;;;5096608;28;20032;-88
2023/01/22 01:08:34;;;;;;;;;;;-2.10;99.90;;;;;;5097146;28;20024;-88
2023/01/22 01:11:03;;;;;;;51.53;18.40;;;-2.10;99.90;;;;;;5096117;28;19930;-87
2023/01/22 01:13:32;;;;;;;47.40;20.15;;;-2.10;99.90;;;;;;5079793;28;20036;-87
2023/01/22 01:16:00;;;;;;;44.78;19.83;;;-2.10;99.90;;;;;;5096237;28;20119;-87
2023/01/22 01:18:26;;;;;;;48.78;20.20;;;-2.10;99.90;;;;;;5096306;28;20032;-88
2023/01/22 01:20:55;;;;;;;45.90;19.60;;;-2.10;99.90;;;;;;5079612;28;20360;-88
2023/01/22 01:23:22;;;;;;;50.00;19.13;;;-2.10;99.90;;;;;;5079432;28;20031;-87
2023/01/22 01:25:48;;;;;;;46.25;19.73;;;-2.00;99.90;;;;;;5079138;28;20123;-87
2023/01/22 01:28:14;;;;;;;44.45;18.50;;;-2.00;99.90;;;;;;5079210;28;20081;-88
2023/01/22 01:30:39;;;;;;;44.92;19.50;;;-2.00;99.90;;;;;;5079181;28;20408;-87
2023/01/22 01:33:05;;;;;;;43.35;19.10;;;-2.00;99.90;;;;;;5079149;28;20024;-87
2023/01/22 01:35:31;;;;;;;50.08;20.63;;;-2.00;99.90;;;;;;5096411;28;20031;-86
2023/01/22 01:37:56;;;;;;;48.80;19.83;;;-2.00;99.90;;;;;;5078971;28;20035;-87
2023/01/22 01:40:22;;;;;;;40.22;18.40;;;-2.00;99.90;;;;;;5078901;28;20460;-87
2023/01/22 01:42:48;;;;;;;46.10;19.25;;;-2.00;99.90;;;;;;5095719;28;20052;-87
2023/01/22 01:45:23;;;;;;;47.10;19.10;;;-1.90;99.90;;;;;;5079216;28;20056;-87
2023/01/22 01:48:20;;;;;;;47.88;19.38;;;-1.90;99.90;;;;;;5078726;28;20031;-88
2023/01/22 01:50:58;;;;;;;44.33;18.45;;;-1.90;99.90;;;;;;5102521;28;20368;-88
2023/01/22 01:53:24;;;;;;;46.67;19.13;;;-1.90;99.90;;;;;;5079033;28;20024;-87
2023/01/22 01:55:51;;;;;;;45.67;19.33;;;-1.90;99.90;;;;;;5078511;28;20579;-87
2023/01/22 01:58:21;;;;;;;43.15;18.45;;;-1.80;99.90;;;;;;5078713;28;20032;-88
2023/01/22 02:00:50;;;;;;;41.38;19.35;;;-1.90;99.90;;;;;;5095828;28;20024;-88
2023/01/22 02:03:16;;;;;;;47.10;18.77;;;-1.90;99.90;;;;;;5078583;28;20028;-87
2023/01/22 02:05:42;;;;;;;46.85;18.88;;;-1.90;99.90;;;;;;5096743;28;20110;-87
2023/01/22 02:08:08;;;;;;;44.63;18.35;;;-1.90;99.90;;;;;;5095262;28;20423;-88
2023/01/22 02:10:37;;;;;;;47.00;20.60;;;-1.90;99.90;;;;;;5078708;28;20563;-88
2023/01/22 02:13:09;;;;;;;43.03;19.13;;;-1.80;99.90;;;;;;5078615;28;20074;-87
2023/01/22 02:15:36;;;;;;;43.30;19.42;;;-1.80;99.90;;;;;;5096570;28;20058;-88
2023/01/22 02:18:03;;;;;;;40.55;18.65;;;-1.80;99.90;;;;;;5078552;28;20475;-88
2023/01/22 02:20:36;;;;;;;42.47;19.27;;;-1.80;99.90;;;;;;5095353;28;20043;-88
2023/01/22 02:23:02;;;;;;;43.22;18.10;;;-1.90;99.90;;;;;;5078293;28;20031;-87
2023/01/22 02:25:27;;;;;;;47.22;19.40;;;-1.80;99.90;;;;;;5078248;28;20020;-87
2023/01/22 02:27:53;;;;;;;45.78;19.02;;;-1.80;99.90;;;;;;5078112;28;20028;-88
2023/01/22 02:30:21;;;;;;;37.55;17.40;;;-1.80;99.90;;;;;;5078285;28;20028;-87
2023/01/22 02:32:47;;;;;;;41.75;17.85;;;-1.80;99.90;;;;;;5094692;28;20020;-87
2023/01/22 02:35:13;;;;;;;43.60;17.92;;;-1.80;99.90;;;;;;5077787;28;20151;-87
2023/01/22 02:37:38;;;;;;;40.72;17.33;;;-1.80;99.90;;;;;;5094905;28;20024;-88
2023/01/22 02:40:05;;;;;;;42.53;19.23;;;-1.80;99.90;;;;;;5077775;28;20544;-88
2023/01/22 02:42:31;;;;;;;45.45;19.20;;;-1.80;99.90;;;;;;5094707;28;20493;-87
2023/01/22 02:44:56;;;;;;;40.03;18.63;;;-1.80;99.90;;;;;;5094339;28;20107;-87
2023/01/22 02:47:22;;;;;;;40.80;19.05;;;-1.80;99.90;;;;;;5077452;28;20027;-87
2023/01/22 02:49:48;;;;;;;42.90;19.08;;;-1.80;99.90;;;;;;5077805;28;20088;-87
2023/01/22 02:52:15;;;;;;;37.92;16.50;;;-1.80;99.90;;;;;;5077983;28;20483;-88
2023/01/22 02:54:41;;;;;;;37.97;17.30;;;-1.80;99.90;;;;;;5077960;28;20031;-87
2023/01/22 02:57:06;;;;;;;37.08;17.63;;;-1.70;99.90;;;;;;5077620;28;20028;-87
2023/01/22 02:59:34;;;;;;;48.90;19.42;;;-1.70;99.90;;;;;;5077240;28;20173;-87
2023/01/22 03:01:59;;;;;;;42.92;18.40;;;-1.80;99.90;;;;;;5077476;28;20020;-87
2023/01/22 03:04:27;;;;;;;38.70;17.60;;;-1.80;99.90;;;;;;5077443;28;20077;-87
2023/01/22 03:06:53;;;;;;;35.88;16.25;;;-1.80;99.90;;;;;;5094468;28;20556;-87
2023/01/22 03:09:19;;;;;;;42.92;17.48;;;-1.80;99.90;;;;;;5094192;28;20028;-88
2023/01/22 03:11:45;;;;;;;40.78;17.08;;;-1.70;99.90;;;;;;5077359;28;20024;-87
2023/01/22 03:22:30;;;;;;;36.97;14.52;;;-1.70;99.90;;;;;;5093679;28;20151;-88
2023/01/22 03:24:57;;;;;;;39.95;17.48;;;-1.70;99.90;;;;;;5077095;28;20020;-87
2023/01/22 03:27:26;;;;;;;34.17;16.20;;;-1.70;99.90;;;;;;5076878;28;20031;-87
2023/01/22 03:29:52;;;;;;;35.22;15.77;;;-1.70;99.90;;;;;;5093736;28;20027;-87
2023/01/22 03:32:19;;;;;;;38.45;16.05;;;-1.70;99.90;;;;;;5077147;28;20020;-88
2023/01/22 03:34:45;;;;;;;35.83;16.25;;;-1.70;99.90;;;;;;5076866;28;20032;-87
2023/01/22 03:37:11;;;;;;;36.70;17.10;;;-1.70;99.90;;;;;;5093544;28;20036;-87
2023/01/22 03:39:40;;;;;;;37.47;16.30;;;-1.70;99.90;;;;;;5091208;28;20035;-87
2023/01/22 03:42:06;;;;;;;39.60;15.98;;;-1.70;99.90;;;;;;5076228;28;20020;-87
2023/01/22 03:44:32;;;;;;;34.40;16.13;;;-1.70;99.90;;;;;;5076604;28;20031;-87
2023/01/22 03:46:57;;;;;;;36.58;16.33;;;-1.70;99.90;;;;;;5076381;28;20024;-87
2023/01/22 03:49:23;;;;;;;35.90;16.65;;;-1.70;99.90;;;;;;5093351;28;20062;-88
2023/01/22 03:51:51;;;;;;;39.35;17.45;;;-1.70;99.90;;;;;;5076606;28;20028;-87
2023/01/22 03:54:17;;;;;;;36.13;15.93;;;-1.70;99.90;;;;;;5076433;28;20026;-87
2023/01/22 03:56:43;;;;;;;37.03;16.98;;;-1.70;99.90;;;;;;5076573;28;20024;-87
2023/01/22 03:59:18;;;;;;;36.30;16.30;;;-1.70;99.90;;;;;;5077872;28;20032;-87
2023/01/22 04:01:45;;;;;;;36.08;15.80;;;-1.70;99.90;;;;;;5076620;28;20043;-87
2023/01/22 04:04:11;;;;;;;40.60;16.88;;;-1.70;99.90;;;;;;5076372;28;20023;-87
2023/01/22 04:06:40;;;;;;;37.58;16.00;;;-1.70;99.90;;;;;;5093640;28;20016;-86
2023/01/22 04:09:06;;;;;;;34.40;15.15;;;-1.70;99.90;;;;;;5092987;28;20047;-87
2023/01/22 04:11:37;;;;;;;36.97;15.85;;;-1.70;99.90;;;;;;5077431;28;20044;-88
2023/01/22 04:14:06;;;;;;;29.50;13.55;;;-1.70;99.90;;;;;;5076879;28;20024;-87
2023/01/22 04:16:34;;;;;;;31.85;14.52;;;-1.70;99.90;;;;;;5076568;28;20035;-87
2023/01/22 04:19:06;;;;;;;32.63;14.40;;;-1.60;99.90;;;;;;5093423;28;20036;-87
2023/01/22 04:21:37;;;;;;;37.65;15.35;;;-1.70;99.90;;;;;;5093392;28;20047;-87
2023/01/22 04:24:05;;;;;;;31.02;15.18;;;-1.70;99.90;;;;;;5076685;28;20471;-88
2023/01/22 04:26:31;;;;;;;28.15;12.75;;;-1.60;99.90;;;;;;5075875;28;20024;-88
2023/01/22 04:28:59;;;;;;;35.10;13.02;;;-1.60;99.90;;;;;;5076735;28;20024;-87
2023/01/22 04:31:25;;;;;;;27.50;12.52;;;-1.60;99.90;;;;;;5076277;28;20522;-88
2023/01/22 04:33:59;;;;;;;28.60;13.63;;;-1.70;99.90;;;;;;5081258;28;20020;-87
2023/01/22 04:36:27;;;;;;;30.23;13.85;;;-1.60;99.90;;;;;;5080312;28;20031;-87
2023/01/22 04:38:53;;;;;;;29.15;13.32;;;-1.60;99.90;;;;;;5080089;28;20017;-87
2023/01/22 04:41:19;;;;;;;28.65;13.18;;;-1.60;99.90;;;;;;5096914;28;20436;-87
2023/01/22 04:43:46;;;;;;;22.92;12.00;;;-1.60;99.90;;;;;;5080526;28;20039;-87
2023/01/22 04:46:12;;;;;;;26.95;12.35;;;-1.60;99.90;;;;;;5079531;28;20374;-88
2023/01/22 04:48:37;;;;;;;27.48;13.10;;;-1.60;99.90;;;;;;5080193;28;20112;-87
2023/01/22 04:51:03;;;;;;;25.13;11.63;;;-1.60;99.90;;;;;;5096709;28;20024;-87
2023/01/22 04:53:31;;;;;;;23.98;12.35;;;-1.50;99.90;;;;;;5080192;28;20028;-87
2023/01/22 04:55:57;;;;;;;25.73;12.93;;;-1.50;99.90;;;;;;5079742;28;21061;-87
2023/01/22 04:58:24;;;;;;;26.10;12.63;;;-1.50;99.90;;;;;;5079852;28;20383;-87
2023/01/22 05:00:57;;;;;;;20.30;10.65;;;-1.60;99.90;;;;;;5079934;28;20036;-88
2023/01/22 05:03:23;;;;;;;22.40;11.13;;;-1.50;99.90;;;;;;5096772;28;20020;-87
2023/01/22 05:05:49;;;;;;;22.95;10.13;;;-1.50;99.90;;;;;;5096603;28;20016;-88
2023/01/22 05:08:16;;;;;;;20.95;9.70;;;-1.50;99.90;;;;;;5079897;28;20020;-87
2023/01/22 05:10:42;;;;;;;22.83;11.00;;;-1.50;99.90;;;;;;5096463;28;20020;-87
2023/01/22 05:13:12;;;;;;;20.85;10.55;;;-1.50;99.90;;;;;;5080004;28;20023;-87
2023/01/22 05:15:38;;;;;;;21.90;11.02;;;-1.60;99.90;;;;;;5079449;28;20032;-87
2023/01/22 05:18:09;;;;;;;22.48;11.48;;;-1.50;99.90;;;;;;5080573;28;20073;-87
2023/01/22 05:20:37;;;;;;;25.48;11.40;;;-1.60;99.90;;;;;;5079706;28;20471;-87
2023/01/22 05:23:04;;;;;;;21.90;11.60;;;-1.60;99.90;;;;;;5079323;28;20024;-88
2023/01/22 05:25:30;;;;;;;26.13;11.25;;;-1.60;99.90;;;;;;5078309;28;20028;-87
2023/01/22 05:27:58;;;;;;;23.23;11.45;;;-1.60;99.90;;;;;;5079180;28;20020;-88
2023/01/22 05:30:43;;;;;;;26.13;11.90;;;-1.60;99.90;;;;;;5088181;28;20036;-87
2023/01/22 05:33:31;;;;;;;30.23;13.23;;;-1.60;99.90;;;;;;5081477;28;20028;-87
2023/01/22 05:36:01;;;;;;;21.58;10.55;;;-1.60;99.90;;;;;;5079180;28;20123;-87
2023/01/22 05:38:29;;;;;;;26.33;10.32;;;-1.50;99.90;;;;;;5078976;28;20040;-87
2023/01/22 05:40:55;;;;;;;22.55;9.77;;;-1.50;99.90;;;;;;5079036;28;20116;-88
2023/01/22 05:43:22;;;;;;;19.05;9.48;;;-1.50;99.90;;;;;;5078181;28;20020;-88
2023/01/22 05:45:53;;;;;;;23.98;10.23;;;-1.50;99.90;;;;;;5079780;28;20012;-87
2023/01/22 05:49:11;;;;;;;20.10;11.25;;;-1.50;99.90;;;;;;5096870;28;20490;-87
2023/01/22 05:51:37;;;;;;;25.55;11.38;;;-1.50;99.90;;;;;;5077861;28;20024;-87
2023/01/22 05:54:04;;;;;;;24.33;10.77;;;-1.50;99.90;;;;;;5095589;28;20558;-87
2023/01/22 05:56:32;;;;;;;21.85;10.60;;;-1.50;99.90;;;;;;5078935;28;20032;-87
2023/01/22 05:58:58;;;;;;;21.92;10.45;;;-1.50;99.90;;;;;;5078341;28;20106;-87
2023/01/22 06:01:24;;;;;;;20.25;10.40;;;-1.50;99.90;;;;;;5078465;28;20107;-87
2023/01/22 06:03:51;;;;;;;24.90;12.63;;;-1.50;99.90;;;;;;5078848;28;20024;-88
2023/01/22 06:06:20;;;;;;;21.65;11.23;;;-1.50;99.90;;;;;;5078981;28;20597;-87
2023/01/22 06:08:50;;;;;;;24.52;12.90;;;-1.50;99.90;;;;;;5095115;28;20020;-87
2023/01/22 06:11:16;;;;;;;26.58;12.40;;;-1.50;99.90;;;;;;5078352;28;20475;-87
2023/01/22 06:13:45;;;;;;;22.98;11.60;;;-1.50;99.90;;;;;;5094933;28;20016;-87
2023/01/22 06:16:21;;;;;;;21.67;10.68;;;-1.50;99.90;;;;;;5079786;28;20055;-88
2023/01/22 06:19:07;;;;;;;16.05;9.85;;;-1.50;99.90;;;;;;5079732;28;20024;-88
2023/01/22 06:21:42;;;;;;;19.38;9.38;;;-1.50;99.90;;;;;;5079005;28;20027;-87
2023/01/22 06:24:09;;;;;;;19.70;9.35;;;-1.50;99.90;;;;;;5094692;28;20051;-87
2023/01/22 06:26:35;;;;;;;20.27;9.90;;;-1.50;99.90;;;;;;5077829;28;20111;-87
2023/01/22 06:29:02;;;;;;;22.70;11.20;;;-1.50;99.90;;;;;;5094989;28;20020;-87
2023/01/22 06:31:28;;;;;;;17.77;9.52;;;-1.50;99.90;;;;;;5078053;28;20024;-87
2023/01/22 06:33:54;;;;;;;18.48;8.70;;;-1.50;99.90;;;;;;5077979;28;20068;-88
2023/01/22 06:36:20;;;;;;;19.60;10.88;;;-1.50;99.90;;;;;;5077980;28;20021;-88
2023/01/22 06:38:47;;;;;;;19.05;10.20;;;-1.50;99.90;;;;;;5078293;28;20049;-87
2023/01/22 06:41:17;;;;;;;17.50;9.57;;;-1.50;99.90;;;;;;5078565;28;20118;-87
2023/01/22 06:43:45;;;;;;;17.55;10.05;;;-1.40;99.90;;;;;;5070169;28;20020;-88
2023/01/22 06:46:11;;;;;;;21.17;10.85;;;-1.40;99.90;;;;;;5077728;28;20047;-88
2023/01/22 06:49:02;;;;;;;19.70;10.75;;;-1.40;99.90;;;;;;5081566;28;20020;-88
2023/01/22 06:51:31;;;;;;;22.23;10.57;;;-1.40;99.90;;;;;;5077685;28;20027;-87
2023/01/22 06:53:58;;;;;;;19.80;10.60;;;-1.40;99.90;;;;;;5077727;28;20374;-87
2023/01/22 06:56:23;;;;;;;25.80;10.45;;;-1.40;99.90;;;;;;5077471;28;20019;-87
2023/01/22 06:58:50;;;;;;;19.75;10.38;;;-1.40;99.90;;;;;;5077717;28;20042;-87
2023/01/22 07:01:16;;;;;;;18.20;8.65;;;-1.40;99.90;;;;;;5094094;28;20023;-88
2023/01/22 07:03:41;;;;;;;21.80;9.23;;;-1.40;99.90;;;;;;5076688;28;20020;-88
2023/01/22 07:06:08;;;;;;;18.80;9.95;;;-1.40;99.90;;;;;;5094394;28;20022;-89
2023/01/22 07:08:34;;;;;;;18.23;9.18;;;-1.30;99.90;;;;;;5076687;28;20062;-87
2023/01/22 07:11:01;;;;;;;17.15;9.52;;;-1.30;99.90;;;;;;5075095;28;20051;-87
2023/01/22 07:13:26;;;;;;;17.33;8.88;;;-1.30;99.90;;;;;;5092921;28;20034;-87
2023/01/22 07:15:52;;;;;;;18.92;9.45;;;-1.30;99.90;;;;;;5075659;28;20028;-87
2023/01/22 07:18:19;;;;;;;19.17;9.85;;;-1.30;99.90;;;;;;5075871;28;20139;-87
2023/01/22 07:20:48;;;;;;;19.45;9.98;;;-1.30;99.90;;;;;;5067120;28;20032;-88
2023/01/22 07:23:14;;;;;;;23.38;10.68;;;-1.20;99.90;;;;;;5070132;28;20114;-87
2023/01/22 07:25:40;;;;;;;21.20;10.50;;;-1.20;99.90;;;;;;5065678;28;20123;-87
2023/01/22 07:28:07;;;;;;;20.98;10.43;;;-1.20;99.90;;;;;;5077277;28;20029;-87
2023/01/22 07:30:32;;;;;;;19.85;10.10;;;-1.20;99.90;;;;;;5085481;28;20035;-87
2023/01/22 07:33:00;;;;;;;16.58;8.98;;;-1.10;99.90;;;;;;5084080;28;20024;-87
2023/01/22 07:35:26;;;;;;;18.23;9.57;;;-1.10;99.90;;;;;;5082896;28;20024;-87
2023/01/22 07:37:53;;;;;;;22.35;11.00;;;-1.10;99.90;;;;;;5068295;28;20032;-87
2023/01/22 07:40:20;;;;;;;16.85;8.95;;;-1.00;99.90;;;;;;5070904;28;20032;-87
2023/01/22 07:42:46;;;;;;;16.77;9.05;;;-1.00;99.90;;;;;;5084337;28;20020;-87
2023/01/22 07:45:11;;;;;;;16.77;8.93;;;-1.00;99.90;;;;;;5069086;28;20327;-87
2023/01/22 07:47:37;;;;;;;15.50;9.18;;;-0.90;99.90;;;;;;5090575;28;20098;-87
2023/01/22 07:50:03;;;;;;;14.85;9.05;;;-0.80;99.90;;;;;;5065124;28;20029;-87
2023/01/22 07:52:29;;;;;;;22.02;10.43;;;-0.80;99.90;;;;;;5082244;28;20028;-87
2023/01/22 07:54:55;;;;;;;23.20;11.32;;;-0.70;99.90;;;;;;5081360;28;20019;-87
2023/01/22 07:57:20;;;;;;;21.00;11.52;;;-0.70;99.90;;;;;;5059047;28;20031;-87
2023/01/22 07:59:46;;;;;;;24.63;9.63;;;-0.60;99.90;;;;;;5088795;28;20495;-87
2023/01/22 08:02:15;;;;;;;14.93;7.88;;;-0.60;99.90;;;;;;5073082;28;20024;-87
2023/01/22 08:04:41;;;;;;;13.35;7.55;;;-0.50;99.90;;;;;;5056773;28;20034;-86
2023/01/22 08:07:16;;;;;;;14.02;8.20;;;-0.50;99.90;;;;;;5071349;28;20907;-87
2023/01/22 08:09:42;;;;;;;20.13;10.13;;;-0.50;99.90;;;;;;5056036;28;20032;-87
2023/01/22 08:12:08;;;;;;;28.83;12.13;;;-0.40;99.90;;;;;;5073744;28;20039;-87
2023/01/22 08:14:34;;;;;;;17.17;8.90;;;-0.30;99.90;;;;;;5085474;28;20085;-87
2023/01/22 08:17:00;;;;;;;9.93;5.93;;;-0.30;99.90;;;;;;5059325;28;20032;-87
2023/01/22 08:19:28;;;;;;;9.25;5.75;;;-0.20;99.90;;;;;;5074848;28;20028;-87
2023/01/22 08:21:54;;;;;;;12.20;6.22;;;-0.20;99.90;;;;;;5061221;28;20115;-87
2023/01/22 08:24:20;;;;;;;9.68;5.82;;;-0.10;99.90;;;;;;5063791;28;20055;-87
2023/01/22 08:26:46;;;;;;;10.30;6.25;;;-0.20;99.90;;;;;;5081061;28;20387;-88
2023/01/22 08:29:13;;;;;;;12.40;5.80;;;-0.10;99.90;;;;;;5075138;28;20102;-87
2023/01/22 08:31:39;;;;;;;8.95;5.47;;;-0.10;99.90;;;;;;5070982;28;20028;-87
2023/01/22 08:34:05;;;;;;;9.23;5.78;;;-0.10;99.90;;;;;;5078058;28;20103;-87
2023/01/22 08:36:31;;;;;;;11.23;6.45;;;-0.10;99.90;;;;;;5067046;28;20032;-88
2023/01/22 08:38:56;;;;;;;10.43;5.63;;;-0.10;99.90;;;;;;5088086;28;20013;-88
2023/01/22 08:41:23;;;;;;;11.45;5.80;;;0.00;99.90;;;;;;5063969;28;20075;-88
2023/01/22 08:43:50;;;;;;;12.02;4.97;;;0.00;99.90;;;;;;5084894;28;20381;-88
2023/01/22 08:46:16;;;;;;;8.15;4.72;;;0.00;99.90;;;;;;5070004;28;20437;-87
2023/01/22 08:48:42;;;;;;;13.45;6.40;;;0.00;99.90;;;;;;5082701;28;20029;-87
2023/01/22 08:51:09;;;;;;;9.15;5.18;;;0.10;99.90;;;;;;5068175;28;20472;-88
2023/01/22 08:53:35;;;;;;;8.52;4.63;;;0.20;99.90;;;;;;5104983;28;20494;-87
2023/01/22 08:56:01;;;;;;;7.28;4.70;;;0.20;99.90;;;;;;5082671;28;20123;-87
2023/01/22 08:58:27;;;;;;;8.15;4.88;;;0.30;99.90;;;;;;5085945;28;20379;-87
2023/01/22 09:00:56;;;;;;;6.60;4.82;;;0.40;99.90;;;;;;5065357;28;20476;-86
2023/01/22 09:03:22;;;;;;;8.20;5.47;;;0.50;99.90;;;;;;5084928;28;20027;-87
2023/01/22 09:05:49;;;;;;;9.30;4.95;;;0.60;99.90;;;;;;5067945;28;20047;-87
2023/01/22 09:08:15;;;;;;;8.23;5.20;;;0.70;99.90;;;;;;5087454;28;20024;-88
2023/01/22 09:10:42;;;;;;;10.40;6.30;;;0.60;99.90;;;;;;5064899;28;20029;-86
2023/01/22 09:13:08;;;;;;;19.77;9.15;;;0.60;99.90;;;;;;5086587;28;20035;-87
2023/01/22 09:15:33;;;;;;;15.95;6.72;;;0.60;99.90;;;;;;5070140;28;20036;-87
2023/01/22 09:17:59;;;;;;;12.23;6.85;;;0.60;99.90;;;;;;5067588;28;20110;-87
2023/01/22 09:20:25;;;;;;;15.60;8.50;;;0.60;99.90;;;;;;5071308;28;20070;-87
2023/01/22 09:22:51;;;;;;;11.15;5.63;;;0.60;99.90;;;;;;5086267;28;20028;-87
2023/01/22 09:25:17;;;;;;;11.20;5.25;;;0.60;99.90;;;;;;5070519;28;20031;-87
2023/01/22 09:27:42;;;;;;;7.63;4.40;;;0.50;99.90;;;;;;5092543;28;20077;-87
2023/01/22 09:30:09;;;;;;;13.55;6.18;;;0.50;99.90;;;;;;5073962;28;20028;-87
2023/01/22 09:32:35;;;;;;;8.57;5.60;;;0.60;99.90;;;;;;5097488;28;20039;-87
2023/01/22 09:35:01;;;;;;;8.00;5.47;;;0.80;99.90;;;;;;5078023;28;20551;-87
2023/01/22 09:37:26;;;;;;;8.73;5.90;;;0.90;99.90;;;;;;5094621;28;20098;-87
2023/01/22 09:39:52;;;;;;;8.55;5.93;;;1.00;99.90;;;;;;5077956;28;20020;-87
2023/01/22 09:42:31;;;;;;;11.77;5.75;;;1.10;99.90;;;;;;5077909;28;20097;-87
2023/01/22 09:45:03;;;;;;;10.90;6.15;;;1.10;99.90;;;;;;5094647;28;20031;-87
2023/01/22 09:47:40;;;;;;;9.50;5.15;;;1.00;99.90;;;;;;5091391;28;20399;-88
2023/01/22 09:50:18;;;;;;;8.30;5.13;;;1.10;99.90;;;;;;5094560;28;20055;-87
2023/01/22 09:52:44;;;;;;;11.43;5.70;;;1.20;99.90;;;;;;5094914;28;20028;-87
2023/01/22 09:55:16;;;;;;;9.20;5.43;;;1.40;99.90;;;;;;5077774;28;20048;-87
2023/01/22 09:57:54;;;;;;;7.35;5.40;;;1.50;99.90;;;;;;5075129;28;20039;-87
2023/01/22 10:00:30;;;;;;;6.25;4.15;;;1.50;99.90;;;;;;5069156;28;20039;-87
2023/01/22 10:03:09;;;;;;;6.00;4.50;;;1.60;99.90;;;;;;5077195;28;20020;-87
2023/01/22 10:05:38;;;;;;;73.90;37.80;;;1.60;99.90;;;;;;5077246;28;20020;-87
2023/01/22 10:08:12;;;;;;;9.07;5.20;;;1.70;99.90;;;;;;5094091;28;20483;-88
2023/01/22 10:10:38;;;;;;;13.80;5.65;;;1.60;99.90;;;;;;5077535;28;20447;-88
2023/01/22 10:13:17;;;;;;;6.97;4.20;;;1.70;99.90;;;;;;5095761;28;20051;-87
2023/01/22 10:15:44;;;;;;;8.32;4.13;;;1.80;99.90;;;;;;5077282;28;20019;-88
2023/01/22 10:18:28;;;;;;;6.45;3.72;;;1.90;99.90;;;;;;5094182;28;20024;-88
2023/01/22 10:20:56;;;;;;;4.05;3.25;;;2.00;99.90;;;;;;5093962;28;20093;-88
2023/01/22 10:23:24;;;;;;;6.72;3.33;;;1.80;99.90;;;;;;5077228;28;20099;-88
2023/01/22 10:26:04;;;;;;;8.68;3.22;;;1.50;99.90;;;;;;5094338;28;20077;-88
2023/01/22 10:28:30;;;;;;;5.90;3.92;;;1.40;99.90;;;;;;5077317;28;20421;-89
2023/01/22 10:30:57;;;;;;;5.10;3.42;;;1.50;99.90;;;;;;5090270;28;20081;-89
2023/01/22 10:33:26;;;;;;;10.10;5.85;;;1.80;99.90;;;;;;5073633;28;20047;-89
2023/01/22 10:35:55;;;;;;;16.30;9.15;;;2.00;99.90;;;;;;5076578;28;20123;-89
2023/01/22 10:38:29;;;;;;;39.65;16.05;;;1.80;99.90;;;;;;5087227;28;20042;-88
2023/01/22 10:41:00;;;;;;;17.65;9.15;;;1.80;99.90;;;;;;5073883;28;20028;-88
2023/01/22 10:43:44;;;;;;;15.63;8.40;;;2.00;99.90;;;;;;5066126;28;20074;-89
2023/01/22 10:46:23;;;;;;;66.82;20.40;;;2.20;99.90;;;;;;5100136;28;20119;-89
2023/01/22 10:48:59;;;;;;;14.60;7.95;;;2.00;99.90;;;;;;5070489;28;20029;-89
2023/01/22 10:51:33;;;;;;;9.48;5.80;;;2.00;99.90;;;;;;5088232;28;20028;-90
2023/01/22 10:53:59;;;;;;;14.65;7.03;;;2.10;99.90;;;;;;5080767;28;20035;-89
2023/01/22 10:56:33;;;;;;;12.05;7.00;;;2.10;99.90;;;;;;5077020;28;20021;-89
2023/01/22 10:59:18;;;;;;;4.55;3.20;;;2.00;99.90;;;;;;5064121;28;20031;-90
2023/01/22 11:01:47;;;;;;;19.90;9.13;;;1.80;99.90;;;;;;5083601;28;20124;-88
2023/01/22 11:04:23;;;;;;;26.75;12.70;;;1.80;99.90;;;;;;5089823;28;20024;-88
2023/01/22 11:06:57;;;;;;;15.65;7.53;;;1.80;99.90;;;;;;5083987;28;20021;-89
2023/01/22 11:09:51;;;;;;;16.48;7.60;;;1.60;99.90;;;;;;5067620;28;20031;-89
2023/01/22 11:12:28;;;;;;;11.38;5.82;;;1.60;99.90;;;;;;5080050;28;20037;-89
2023/01/22 11:15:04;;;;;;;13.73;7.18;;;1.60;99.90;;;;;;5086605;28;20037;-89
2023/01/22 11:17:37;;;;;;;17.63;8.13;;;1.50;99.90;;;;;;5066634;28;20496;-89
2023/01/22 11:20:16;;;;;;;16.73;8.18;;;1.50;99.90;;;;;;5075068;28;20024;-89
2023/01/22 11:22:47;;;;;;;22.58;10.98;;;1.40;99.90;;;;;;5068277;28;20060;-88
2023/01/22 11:25:13;;;;;;;;;;;1.50;99.90;;;;;;5073970;28;20027;-89
2023/01/22 11:28:11;;;;;;;8.63;5.15;;;1.70;99.90;;;;;;5078874;28;20344;-89
2023/01/22 11:30:39;;;;;;;5.70;3.53;;;1.90;99.90;;;;;;5084104;28;20043;-89
2023/01/22 11:33:34;;;;;;;7.10;4.55;;;2.00;99.90;;;;;;5081327;28;20028;-89
2023/01/22 11:36:21;;;;;;;6.97;4.90;;;2.30;99.90;;;;;;5085930;28;20522;-88
2023/01/22 11:38:55;;;;;;;7.18;4.38;;;2.70;99.90;;;;;;5091869;28;20035;-89
2023/01/22 11:41:25;;;;;;;7.28;4.13;;;2.80;99.90;;;;;;5075685;28;20508;-88
2023/01/22 11:44:24;;;;;;;7.75;5.20;;;2.90;99.90;;;;;;5092563;28;20027;-89
2023/01/22 11:47:11;;;;;;;3.88;2.85;;;3.00;99.90;;;;;;5093295;28;20028;-89
2023/01/22 11:50:01;;;;;;;8.27;3.47;;;3.00;99.90;;;;;;5089437;28;20028;-89
2023/01/22 11:52:57;;;;;;;5.10;3.33;;;2.90;99.90;;;;;;5075942;28;20020;-88
2023/01/22 11:56:03;;;;;;;5.53;3.55;;;2.80;99.90;;;;;;5076120;28;20031;-89
2023/01/22 11:58:44;;;;;;;6.78;3.00;;;2.40;99.90;;;;;;5050838;28;20040;-88
2023/01/22 12:01:23;;;;;;;;;;;2.40;99.90;;;;;;5093128;28;20446;-88
2023/01/22 12:03:58;;;;;;;5.15;3.70;;;2.80;99.90;;;;;;5092322;28;19908;-88
2023/01/22 12:06:46;;;;;;;8.32;4.82;;;3.10;99.90;;;;;;5092271;28;20028;-89
2023/01/22 12:09:25;;;;;;;10.18;4.50;;;3.20;99.90;;;;;;5094192;28;20016;-89
2023/01/22 12:12:21;;;;;;;10.00;4.15;;;3.50;99.90;;;;;;5092216;28;20483;-88
2023/01/22 12:15:44;;;;;;;7.13;4.53;;;3.30;99.90;;;;;;5075838;28;20028;-88
2023/01/22 12:18:30;;;;;;;7.03;4.47;;;2.90;99.90;;;;;;4995127;28;20029;-88
2023/01/22 12:21:16;;;;;;;7.60;3.88;;;2.60;99.90;;;;;;5010570;28;20124;-88
2023/01/22 12:23:58;;;;;;;5.25;3.47;;;2.60;99.90;;;;;;5059723;28;20792;-88
2023/01/22 12:26:25;;;;;;;;;;;2.50;99.90;;;;;;5091911;28;20126;-88
2023/01/22 12:29:27;;;;;;;8.02;3.90;;;2.40;99.90;;;;;;5090087;28;19965;-89
2023/01/22 12:31:59;;;;;;;9.57;3.78;;;2.40;99.90;;;;;;5092073;28;20532;-88
2023/01/22 12:34:28;;;;;;;;;;;2.70;99.90;;;;;;5075755;28;20035;-88
2023/01/22 12:36:54;;;;;;;7.25;4.20;;;2.60;99.90;;;;;;5092685;28;19908;-88
2023/01/22 12:39:50;;;;;;;15.70;5.13;;;2.50;99.90;;;;;;5091709;28;20028;-88
2023/01/22 12:42:30;;;;;;;10.13;3.90;;;2.50;99.90;;;;;;5084932;28;20024;-88
2023/01/22 12:45:05;;;;;;;8.48;4.30;;;2.50;99.90;;;;;;5092886;28;20031;-87
2023/01/22 12:47:37;;;;;;;5.43;3.97;;;2.30;99.90;;;;;;5091259;28;20036;-88
2023/01/22 12:50:14;;;;;;;14.07;4.53;;;2.20;99.90;;;;;;5074066;28;20039;-87
2023/01/22 12:52:40;;;;;;;6.78;4.72;;;2.10;99.90;;;;;;5066155;28;20488;-87
2023/01/22 12:55:43;;;;;;;15.98;5.32;;;2.00;99.90;;;;;;5071605;28;20035;-87
2023/01/22 12:58:24;;;;;;;9.10;5.63;;;2.00;99.90;;;;;;5066541;28;20039;-87
2023/01/22 13:01:23;;;;;;;7.07;4.55;;;2.00;99.90;;;;;;5073778;28;20039;-87
2023/01/22 13:04:04;;;;;;;14.73;7.47;;;2.10;99.90;;;;;;5085308;28;20674;-87